createdAt,value
2022-09-11T00:03:23.726Z,98251.02
2022-09-11T00:09:27.082Z,98252.40
2022-09-11T00:16:07.357Z,98249.91
2022-09-11T00:22:35.220Z,98255.59
2022-09-11T00:28:46.971Z,98246.71
2022-09-11T00:35:05.352Z,98245.33
2022-09-11T00:41:45.403Z,98238.99
2022-09-11T00:48:41.711Z,98236.95
2022-09-11T00:55:30.756Z,98232.06
2022-09-11T01:01:05.221Z,98229.30
2022-09-11T01:07:19.776Z,98227.65
2022-09-11T01:14:13.612Z,98224.83
2022-09-11T01:21:06.752Z,98228.34
2022-09-11T01:28:17.733Z,98227.08
2022-09-11T01:34:42.372Z,98228.89
2022-09-11T01:41:35.140Z,98230.72
2022-09-11T01:47:57.682Z,98227.20
2022-09-11T01:54:03.152Z,98219.11
2022-09-11T02:00:55.892Z,98216.95
2022-09-11T02:06:56.788Z,98219.15
2022-09-11T02:13:38.326Z,98224.13
2022-09-11T02:20:01.638Z,98221.01
2022-09-11T02:26:41.180Z,98221.42
2022-09-11T02:32:41.519Z,98212.66
2022-09-11T02:39:07.079Z,98207.73
2022-09-11T02:45:29.981Z,98205.48
2022-09-11T02:52:33.043Z,98203.80
2022-09-11T02:59:24.521Z,98212.96
2022-09-11T03:05:59.757Z,98208.52
2022-09-11T03:12:57.896Z,98202.54
2022-09-11T03:20:03.465Z,98199.73
2022-09-11T03:26:59.519Z,98197.67
2022-09-11T03:33:48.157Z,98197.98
2022-09-11T03:40:38.451Z,98197.42
2022-09-11T03:47:05.404Z,98195.78
2022-09-11T03:53:29.511Z,98199.22
2022-09-11T04:00:00.606Z,98196.70
2022-09-11T04:06:40.140Z,98200.59
2022-09-11T04:13:06.854Z,98202.86
2022-09-11T04:19:21.610Z,98203.02
2022-09-11T04:25:55.899Z,98204.98
2022-09-11T04:31:27.451Z,98199.67
2022-09-11T04:36:31.919Z,98199.31
2022-09-11T04:42:31.674Z,98199.89
2022-09-11T04:48:44.404Z,98199.13
2022-09-11T04:55:16.400Z,98196.34
2022-09-11T05:01:05.667Z,98196.70
2022-09-11T05:07:17.672Z,98199.65
2022-09-11T05:13:41.501Z,98198.72
2022-09-11T05:19:56.004Z,98198.20
2022-09-11T05:25:51.347Z,98198.34
2022-09-11T05:32:25.070Z,98204.05
2022-09-11T05:38:50.823Z,98210.81
2022-09-11T05:45:00.086Z,98216.58
2022-09-11T05:50:59.343Z,98221.73
2022-09-11T05:57:07.414Z,98217.23
2022-09-11T06:04:08.663Z,98214.52
2022-09-11T06:10:39.094Z,98216.14
2022-09-11T06:16:30.696Z,98220.96
2022-09-11T06:23:17.293Z,98226.52
2022-09-11T06:29:07.920Z,98229.26
2022-09-11T06:35:52.593Z,98230.80
2022-09-11T06:41:48.596Z,98229.53
2022-09-11T06:48:21.843Z,98237.55
2022-09-11T06:54:31.204Z,98237.16
2022-09-11T07:01:04.629Z,98241.02
2022-09-11T07:06:57.892Z,98245.57
2022-09-11T07:13:53.752Z,98242.69
2022-09-11T07:20:12.162Z,98241.25
2022-09-11T07:26:44.388Z,98241.62
2022-09-11T07:32:39.059Z,98244.45
2022-09-11T07:38:36.988Z,98245.93
2022-09-11T07:44:25.284Z,98249.51
2022-09-11T07:49:39.633Z,98249.39
2022-09-11T07:55:28.256Z,98248.21
2022-09-11T08:00:41.064Z,98253.24
2022-09-11T08:06:43.860Z,98258.98
2022-09-11T08:12:11.297Z,98263.40
2022-09-11T08:17:17.061Z,98262.69
2022-09-11T08:22:40.365Z,98260.48
2022-09-11T08:28:12.640Z,98264.78
2022-09-11T08:33:33.447Z,98269.28
2022-09-11T08:39:05.283Z,98274.73
2022-09-11T08:44:49.651Z,98279.80
2022-09-11T08:50:51.717Z,98283.40
2022-09-11T08:56:05.486Z,98286.60
2022-09-11T09:02:11.370Z,98287.00
2022-09-11T09:08:16.880Z,98282.85
2022-09-11T09:14:24.346Z,98283.70
2022-09-11T09:20:36.013Z,98280.63
2022-09-11T09:26:01.408Z,98283.64
2022-09-11T09:31:39.178Z,98285.79
2022-09-11T09:37:48.770Z,98286.06
2022-09-11T09:44:19.786Z,98287.72
2022-09-11T09:50:10.260Z,98285.73
2022-09-11T09:55:42.787Z,98282.46
2022-09-11T10:02:18.675Z,98285.52
2022-09-11T10:08:16.872Z,98290.60
2022-09-11T10:14:08.942Z,98291.05
2022-09-11T10:20:00.679Z,98280.09
2022-09-11T10:25:47.894Z,98280.50
2022-09-11T10:31:18.658Z,98287.74
2022-09-11T10:37:02.637Z,98291.17
2022-09-11T10:42:41.476Z,98300.37
2022-09-11T10:48:45.647Z,98296.18
2022-09-11T10:55:33.463Z,98290.55
2022-09-11T11:01:07.024Z,98285.55
2022-09-11T11:06:53.150Z,98277.20
2022-09-11T11:13:12.681Z,98278.66
2022-09-11T11:19:28.454Z,98283.73
2022-09-11T11:25:34.843Z,98290.46
2022-09-11T11:31:49.681Z,98291.79
2022-09-11T11:38:22.351Z,98296.34
2022-09-11T11:44:12.191Z,98298.25
2022-09-11T11:50:10.139Z,98300.98
2022-09-11T11:55:48.097Z,98298.60
2022-09-11T12:01:31.256Z,98303.88
2022-09-11T12:06:45.931Z,98301.01
2022-09-11T12:12:43.308Z,98300.02
2022-09-11T12:19:17.723Z,98302.65
2022-09-11T12:24:54.514Z,98299.89
2022-09-11T12:29:57.948Z,98289.52
2022-09-11T12:35:29.763Z,98290.09
2022-09-11T12:40:53.367Z,98290.54
2022-09-11T12:46:51.645Z,98288.55
2022-09-11T12:52:02.633Z,98288.70
2022-09-11T12:57:36.365Z,98302.15
2022-09-11T13:03:08.912Z,98291.45
2022-09-11T13:08:24.405Z,98293.03
2022-09-11T13:14:05.724Z,98282.72
2022-09-11T13:19:57.271Z,98284.19
2022-09-11T13:25:26.001Z,98283.58
2022-09-11T13:30:48.682Z,98285.71
2022-09-11T13:36:44.750Z,98286.58
2022-09-11T13:42:17.040Z,98289.33
2022-09-11T13:47:45.633Z,98290.59
2022-09-11T13:53:34.739Z,98285.97
2022-09-11T13:59:02.712Z,98285.96
2022-09-11T14:04:11.580Z,98280.55
2022-09-11T14:09:24.233Z,98283.46
2022-09-11T14:14:47.018Z,98278.79
2022-09-11T14:19:58.956Z,98280.63
2022-09-11T14:25:59.822Z,98283.96
2022-09-11T14:31:49.494Z,98288.19
2022-09-11T14:37:17.647Z,98286.58
2022-09-11T14:42:36.920Z,98283.93
2022-09-11T14:48:15.310Z,98279.52
2022-09-11T14:53:35.163Z,98280.45
2022-09-11T14:59:06.423Z,98277.92
2022-09-11T15:05:04.771Z,98279.94
2022-09-11T15:10:38.647Z,98282.40
2022-09-11T15:15:44.643Z,98280.95
2022-09-11T15:21:03.769Z,98282.36
2022-09-11T15:26:18.555Z,98284.48
2022-09-11T15:31:40.685Z,98290.74
2022-09-11T15:37:06.076Z,98332.27
2022-09-11T15:43:27.761Z,98323.67
2022-09-11T15:49:07.808Z,98327.55
2022-09-11T15:54:28.326Z,98333.80
2022-09-11T16:00:48.922Z,98335.94
2022-09-11T16:06:27.380Z,98347.91
2022-09-11T16:11:47.979Z,98348.79
2022-09-11T16:17:09.340Z,98357.62
2022-09-11T16:22:11.572Z,98355.37
2022-09-11T16:27:24.476Z,98363.76
2022-09-11T16:32:56.181Z,98373.25
2022-09-11T16:39:25.877Z,98373.23
2022-09-11T16:44:41.873Z,98370.63
2022-09-11T16:50:07.280Z,98373.33
2022-09-11T16:55:14.384Z,98380.83
2022-09-11T17:00:21.803Z,98383.50
2022-09-11T17:05:33.041Z,98381.53
2022-09-11T17:10:58.649Z,98385.67
2022-09-11T17:16:16.680Z,98385.13
2022-09-11T17:21:29.149Z,98392.66
2022-09-11T17:26:34.608Z,98392.45
2022-09-11T17:32:10.618Z,98404.80
2022-09-11T17:37:47.377Z,98410.84
2022-09-11T17:42:54.987Z,98412.73
2022-09-11T17:48:58.179Z,98418.42
2022-09-11T17:54:25.331Z,98420.69
2022-09-11T17:59:30.261Z,98425.48
2022-09-11T18:04:48.936Z,98429.00
2022-09-11T18:09:58.954Z,98432.49
2022-09-11T18:15:06.989Z,98438.20
2022-09-11T18:20:17.981Z,98440.10
2022-09-11T18:25:26.146Z,98440.36
2022-09-11T18:30:31.712Z,98444.28
2022-09-11T18:35:34.998Z,98445.20
2022-09-11T18:40:42.784Z,98449.36
2022-09-11T18:45:53.664Z,98448.73
2022-09-11T18:50:55.850Z,98449.07
2022-09-11T18:56:11.299Z,98447.41
2022-09-11T19:01:17.346Z,98452.77
2022-09-11T19:06:35.494Z,98453.50
2022-09-11T19:11:54.962Z,98457.90
2022-09-11T19:17:28.043Z,98464.11
2022-09-11T19:22:38.861Z,98468.10
2022-09-11T19:27:42.471Z,98473.20
2022-09-11T19:33:27.585Z,98476.74
2022-09-11T19:39:50.979Z,98471.98
2022-09-11T19:45:38.496Z,98478.55
2022-09-11T19:51:06.793Z,98476.02
2022-09-11T19:56:36.726Z,98486.80
2022-09-11T20:01:50.460Z,98489.25
2022-09-11T20:07:34.848Z,98491.92
2022-09-11T20:12:51.875Z,98491.52
2022-09-11T20:18:32.247Z,98495.16
2022-09-11T20:24:20.533Z,98499.89
2022-09-11T20:29:56.010Z,98499.75
2022-09-11T20:35:00.676Z,98499.25
2022-09-11T20:40:42.713Z,98498.35
2022-09-11T20:46:32.777Z,98502.48
2022-09-11T20:52:39.558Z,98505.63
2022-09-11T20:59:12.065Z,98504.36
2022-09-11T21:05:42.575Z,98503.39
2022-09-11T21:11:52.802Z,98499.11
2022-09-11T21:18:29.727Z,98500.02
2022-09-11T21:24:28.825Z,98501.30
2022-09-11T21:30:11.979Z,98501.23
2022-09-11T21:36:34.251Z,98498.70
2022-09-11T21:43:27.676Z,98502.77
2022-09-11T21:48:47.643Z,98508.15
2022-09-11T21:55:13.453Z,98510.09
2022-09-11T22:01:22.551Z,98506.21
2022-09-11T22:07:26.012Z,98507.20
2022-09-11T22:13:41.028Z,98504.94
2022-09-11T22:19:45.861Z,98506.28
2022-09-11T22:25:58.674Z,98508.52
2022-09-11T22:32:26.745Z,98517.05
2022-09-11T22:38:16.461Z,98522.35
2022-09-11T22:44:12.452Z,98525.40
2022-09-11T22:50:42.652Z,98527.60
2022-09-11T22:57:29.330Z,98530.14
2022-09-11T23:03:55.032Z,98527.35
2022-09-11T23:10:35.801Z,98524.58
2022-09-11T23:17:01.246Z,98521.05
2022-09-11T23:23:32.822Z,98522.73
2022-09-11T23:30:09.610Z,98523.38
2022-09-11T23:36:50.670Z,98521.92
2022-09-11T23:43:11.298Z,98524.81
2022-09-11T23:49:42.965Z,98523.23
2022-09-11T23:56:05.663Z,98521.02
